Time;durP1;ratioP1;P1;durP2;ratioP2;P2;SDS_P1;SDS_P2;PMS_P1;PMS_P2;Temp;Humidity;BMP_temperature;BMP_pressure;BME280_temperature;BME280_humidity;BME280_pressure;Samples;Min_cycle;Max_cycle;Signal;HPM_P1;HPM_P2
2023/05/06 00:01:20;;;;;;;5.70;5.17;;;15.20;99.90;;;;;;5044879;28;20205;-42
2023/05/06 00:03:46;;;;;;;9.73;5.50;;;15.20;99.90;;;;;;5046517;28;20199;-43
2023/05/06 00:06:12;;;;;;;5.70;5.17;;;15.10;99.90;;;;;;5043353;28;20181;-43
2023/05/06 00:08:38;;;;;;;5.40;4.90;;;15.10;99.90;;;;;;5028916;28;20238;-43
2023/05/06 00:11:04;;;;;;;5.80;4.90;;;15.10;99.90;;;;;;5062367;28;20220;-42
2023/05/06 00:13:29;;;;;;;5.33;4.83;;;15.20;99.90;;;;;;5041819;28;20205;-42
2023/05/06 00:15:55;;;;;;;5.57;5.00;;;15.10;99.90;;;;;;5041221;28;20209;-43
2023/05/06 00:18:22;;;;;;;5.50;5.00;;;15.10;99.90;;;;;;5044157;28;20185;-43
2023/05/06 00:20:48;;;;;;;5.40;4.90;;;15.10;99.90;;;;;;5044393;28;20256;-43
2023/05/06 00:23:14;;;;;;;7.07;5.30;;;15.10;99.90;;;;;;5036140;28;20205;-42
2023/05/06 00:25:40;;;;;;;7.50;5.70;;;15.10;99.90;;;;;;5041329;28;20279;-40
2023/05/06 00:28:05;;;;;;;5.90;5.40;;;15.10;99.90;;;;;;5024631;28;20182;-42
2023/05/06 00:30:31;;;;;;;6.23;5.60;;;15.00;99.90;;;;;;5045019;28;20246;-42
2023/05/06 00:32:57;;;;;;;7.77;6.17;;;15.10;99.90;;;;;;5044731;28;20307;-43
2023/05/06 00:35:23;;;;;;;8.23;7.40;;;15.10;99.90;;;;;;5047082;28;20173;-42
2023/05/06 00:37:56;;;;;;;8.50;6.87;;;15.00;99.90;;;;;;5038194;28;20185;-43
2023/05/06 00:40:22;;;;;;;8.80;6.77;;;15.00;99.90;;;;;;5048601;28;20221;-42
2023/05/06 00:42:48;;;;;;;8.47;6.60;;;15.00;99.90;;;;;;5048900;28;20267;-42
2023/05/06 00:45:14;;;;;;;6.60;5.10;;;15.10;99.90;;;;;;5050606;28;20654;-43
2023/05/06 00:47:41;;;;;;;7.03;5.83;;;15.10;99.90;;;;;;5052707;28;20182;-42
2023/05/06 00:50:07;;;;;;;5.77;4.73;;;15.00;99.90;;;;;;5058949;28;20202;-42
2023/05/06 00:52:33;;;;;;;5.23;4.73;;;15.00;99.90;;;;;;5032957;28;20209;-42
2023/05/06 00:54:59;;;;;;;5.70;4.90;;;15.00;99.90;;;;;;5047815;28;20180;-42
2023/05/06 00:57:25;;;;;;;5.67;5.17;;;15.00;99.90;;;;;;5062801;28;20174;-43
2023/05/06 00:59:51;;;;;;;6.13;5.20;;;15.10;99.90;;;;;;5043947;28;20208;-42
2023/05/06 01:02:17;;;;;;;7.67;5.90;;;15.10;99.90;;;;;;5026552;28;20193;-42
2023/05/06 01:04:43;;;;;;;6.53;5.93;;;15.10;99.90;;;;;;5026437;28;20185;-40
2023/05/06 01:07:32;;;;;;;6.10;5.60;;;15.10;99.90;;;;;;5031342;28;20188;-41
2023/05/06 01:10:19;;;;;;;6.10;5.60;;;15.10;99.90;;;;;;4996027;28;20216;-42
2023/05/06 01:13:05;;;;;;;6.43;5.83;;;15.10;99.90;;;;;;5041491;28;20197;-42
2023/05/06 01:15:46;;;;;;;6.67;5.00;;;15.00;99.90;;;;;;5021220;28;20184;-41
2023/05/06 01:18:16;;;;;;;6.13;5.17;;;15.00;99.90;;;;;;5051463;28;20274;-42
2023/05/06 01:20:45;;;;;;;6.20;5.60;;;15.00;99.90;;;;;;5070092;28;20216;-43
2023/05/06 01:23:12;;;;;;;5.50;5.00;;;14.90;99.90;;;;;;5035709;28;20185;-43
2023/05/06 01:25:38;;;;;;;6.50;4.80;;;14.90;99.90;;;;;;5026775;28;20224;-42
2023/05/06 01:28:09;;;;;;;5.13;4.63;;;14.80;99.90;;;;;;5040939;28;20186;-41
2023/05/06 01:30:56;;;;;;;5.27;4.47;;;14.80;99.90;;;;;;5058221;28;20197;-42
2023/05/06 01:33:44;;;;;;;6.10;4.57;;;14.80;99.90;;;;;;5031807;28;20228;-43
2023/05/06 01:36:28;;;;;;;6.10;4.33;;;14.70;99.90;;;;;;5059155;28;20190;-42
2023/05/06 01:39:05;;;;;;;5.60;5.10;;;14.60;99.90;;;;;;5062075;28;20239;-42
2023/05/06 01:41:33;;;;;;;6.23;5.33;;;14.60;99.90;;;;;;5043365;28;20177;-42
2023/05/06 01:44:00;;;;;;;6.37;5.67;;;14.60;99.90;;;;;;5044117;28;20192;-43
2023/05/06 01:46:28;;;;;;;5.33;4.77;;;14.60;99.90;;;;;;5043685;28;20185;-42
2023/05/06 01:48:57;;;;;;;6.17;5.57;;;14.60;99.90;;;;;;5033615;28;20261;-41
2023/05/06 01:51:23;;;;;;;6.77;5.73;;;14.60;99.90;;;;;;5062537;28;20204;-42
2023/05/06 01:53:49;;;;;;;6.67;6.07;;;14.60;99.90;;;;;;5038922;28;20205;-42
2023/05/06 01:56:16;;;;;;;5.97;5.33;;;14.60;99.90;;;;;;5046439;28;20186;-41
2023/05/06 01:58:41;;;;;;;9.07;6.20;;;14.60;99.90;;;;;;5049469;28;20187;-42
2023/05/06 02:01:07;;;;;;;6.47;5.87;;;14.60;99.90;;;;;;5046192;28;20283;-42
2023/05/06 02:03:33;;;;;;;6.60;5.80;;;14.60;99.90;;;;;;5035749;28;20197;-42
2023/05/06 02:05:59;;;;;;;6.40;5.63;;;14.60;99.90;;;;;;5059995;28;20210;-42
2023/05/06 02:08:26;;;;;;;6.23;5.67;;;14.50;99.90;;;;;;5029672;28;20186;-42
2023/05/06 02:10:52;;;;;;;6.50;5.77;;;14.50;99.90;;;;;;5039006;28;20256;-43
2023/05/06 02:13:19;;;;;;;6.17;5.30;;;14.50;99.90;;;;;;5040099;28;20206;-43
2023/05/06 02:15:45;;;;;;;6.30;4.70;;;14.50;99.90;;;;;;5052531;28;20231;-41
2023/05/06 02:18:15;;;;;;;5.67;5.00;;;14.50;99.90;;;;;;5038266;28;20181;-42
2023/05/06 02:20:41;;;;;;;5.30;4.73;;;14.40;99.90;;;;;;5064720;28;20278;-40
2023/05/06 02:23:12;;;;;;;5.13;4.63;;;14.40;99.90;;;;;;5054888;28;20177;-42
2023/05/06 02:25:38;;;;;;;5.03;4.50;;;14.30;99.90;;;;;;5030613;28;20181;-43
2023/05/06 02:28:05;;;;;;;5.27;4.30;;;14.30;99.90;;;;;;5046230;28;20192;-41
2023/05/06 02:30:31;;;;;;;5.67;4.50;;;14.30;99.90;;;;;;5043624;28;20217;-42
2023/05/06 02:32:57;;;;;;;5.90;5.30;;;14.20;99.90;;;;;;5029877;28;20220;-43
2023/05/06 02:35:23;;;;;;;7.23;4.50;;;14.20;99.90;;;;;;5063131;28;20202;-42
2023/05/06 02:37:49;;;;;;;4.70;4.30;;;14.00;99.90;;;;;;5030320;28;20220;-43
2023/05/06 02:40:15;;;;;;;4.33;3.93;;;14.00;99.90;;;;;;5045737;28;20233;-42
2023/05/06 02:42:40;;;;;;;5.27;4.77;;;13.90;99.90;;;;;;5043136;28;20182;-42
2023/05/06 02:45:07;;;;;;;5.10;4.60;;;13.90;99.90;;;;;;5026845;28;20182;-43
2023/05/06 02:47:32;;;;;;;5.40;4.93;;;13.90;99.90;;;;;;5050452;28;20177;-42
2023/05/06 02:49:58;;;;;;;6.87;4.87;;;13.90;99.90;;;;;;5047954;28;20260;-42
2023/05/06 02:52:24;;;;;;;6.43;5.53;;;13.90;99.90;;;;;;5036215;28;20201;-40
2023/05/06 02:54:51;;;;;;;6.40;5.47;;;13.80;99.90;;;;;;5046555;28;20188;-42
2023/05/06 02:57:17;;;;;;;6.30;5.70;;;13.70;99.90;;;;;;5047809;28;20181;-42
2023/05/06 02:59:43;;;;;;;11.87;6.17;;;13.70;99.90;;;;;;5035590;28;20293;-41
2023/05/06 03:02:09;;;;;;;19.93;6.40;;;13.60;99.90;;;;;;5037757;28;20185;-43
2023/05/06 03:04:34;;;;;;;11.20;6.10;;;13.60;99.90;;;;;;5048473;28;20190;-42
2023/05/06 03:07:00;;;;;;;6.87;6.17;;;13.60;99.90;;;;;;5044261;28;20193;-42
2023/05/06 03:09:26;;;;;;;7.10;6.40;;;13.60;99.90;;;;;;5044894;28;20201;-43
2023/05/06 03:11:55;;;;;;;7.43;4.47;;;13.50;99.90;;;;;;5044953;28;20257;-43
2023/05/06 03:14:20;;;;;;;6.20;3.87;;;13.50;99.90;;;;;;5044713;28;20185;-43
2023/05/06 03:16:46;;;;;;;4.10;3.70;;;13.50;99.90;;;;;;5047322;28;20230;-43
2023/05/06 03:19:13;;;;;;;4.73;3.83;;;13.50;99.90;;;;;;5045587;28;20181;-43
2023/05/06 03:21:40;;;;;;;4.77;3.93;;;13.50;99.90;;;;;;5032082;28;20283;-43
2023/05/06 03:24:06;;;;;;;3.93;3.53;;;13.40;99.90;;;;;;5061252;28;20257;-43
2023/05/06 03:26:33;;;;;;;4.30;3.90;;;13.30;99.90;;;;;;5052300;28;20185;-42
2023/05/06 03:28:59;;;;;;;6.63;3.67;;;13.30;99.90;;;;;;5041086;28;20257;-42
2023/05/06 03:31:25;;;;;;;3.47;3.17;;;13.20;99.90;;;;;;5062122;28;20272;-43
2023/05/06 03:33:51;;;;;;;4.07;3.57;;;13.20;99.90;;;;;;5042405;28;20205;-43
2023/05/06 03:36:18;;;;;;;3.90;3.60;;;13.20;99.90;;;;;;5050927;28;20169;-43
2023/05/06 03:38:46;;;;;;;3.40;3.10;;;13.20;99.90;;;;;;5026258;28;20212;-42
2023/05/06 03:41:11;;;;;;;5.50;3.27;;;13.10;99.90;;;;;;5029468;28;20221;-41
2023/05/06 03:43:37;;;;;;;3.57;3.27;;;13.00;99.90;;;;;;5044203;28;20188;-43
2023/05/06 03:46:04;;;;;;;8.47;5.33;;;13.00;99.90;;;;;;5047457;28;20224;-43
2023/05/06 03:48:33;;;;;;;4.77;3.40;;;12.90;99.90;;;;;;5044428;28;20204;-43
2023/05/06 03:50:59;;;;;;;3.13;2.50;;;12.80;99.90;;;;;;5024675;28;20209;-43
2023/05/06 03:53:26;;;;;;;3.07;2.70;;;12.70;99.90;;;;;;5034703;28;20197;-42
2023/05/06 03:55:52;;;;;;;3.13;2.70;;;12.60;99.90;;;;;;5037439;28;20226;-42
2023/05/06 03:58:17;;;;;;;3.03;2.53;;;12.60;99.90;;;;;;5045017;28;20181;-42
2023/05/06 04:00:45;;;;;;;3.10;2.80;;;12.50;99.90;;;;;;5052146;28;20191;-43
2023/05/06 04:03:11;;;;;;;5.00;2.90;;;12.50;99.90;;;;;;5052831;28;20184;-43
2023/05/06 04:05:49;;;;;;;3.17;2.87;;;12.50;99.90;;;;;;5043413;28;20215;-43
2023/05/06 04:08:17;;;;;;;2.83;2.63;;;12.50;99.90;;;;;;5049881;28;20192;-42
2023/05/06 04:10:44;;;;;;;3.20;2.70;;;12.50;99.90;;;;;;5046264;28;20261;-43
2023/05/06 04:13:16;;;;;;;4.70;3.23;;;12.40;99.90;;;;;;5033066;28;20258;-42
2023/05/06 04:15:44;;;;;;;3.50;3.20;;;12.40;99.90;;;;;;5050995;28;20185;-43
2023/05/06 04:18:18;;;;;;;6.00;3.37;;;12.50;99.90;;;;;;5043416;28;20231;-42
2023/05/06 04:20:48;;;;;;;3.33;3.00;;;12.50;99.90;;;;;;5036359;28;20218;-43
2023/05/06 04:23:15;;;;;;;3.27;3.03;;;12.50;99.90;;;;;;5035385;28;20184;-41
2023/05/06 04:25:43;;;;;;;3.50;3.20;;;12.50;99.90;;;;;;5036107;28;20195;-42
2023/05/06 04:28:13;;;;;;;3.60;3.30;;;12.40;99.90;;;;;;5034432;28;20208;-42
2023/05/06 04:30:39;;;;;;;4.47;2.97;;;12.40;99.90;;;;;;5036984;28;20686;-43
2023/05/06 04:33:07;;;;;;;4.07;3.73;;;12.40;99.90;;;;;;5033459;28;20218;-42
2023/05/06 04:35:35;;;;;;;3.17;2.87;;;12.40;99.90;;;;;;5038144;28;20190;-42
2023/05/06 04:38:02;;;;;;;3.20;3.00;;;12.40;99.90;;;;;;5050904;28;20184;-42
2023/05/06 04:40:30;;;;;;;3.40;3.10;;;12.40;99.90;;;;;;5034113;28;20215;-43
2023/05/06 04:42:56;;;;;;;6.33;3.80;;;12.40;99.90;;;;;;5033162;28;20183;-42
2023/05/06 04:45:25;;;;;;;4.00;3.70;;;12.30;99.90;;;;;;5034950;28;20235;-40
2023/05/06 04:47:52;;;;;;;5.63;4.37;;;12.40;99.90;;;;;;5051413;28;20214;-43
2023/05/06 04:50:18;;;;;;;9.33;4.40;;;12.40;99.90;;;;;;5049482;28;20212;-43
2023/05/06 04:52:44;;;;;;;19.63;5.17;;;12.40;99.90;;;;;;5031995;28;20196;-43
2023/05/06 04:55:11;;;;;;;13.77;4.20;;;12.40;99.90;;;;;;5052143;28;20184;-42
2023/05/06 04:57:41;;;;;;;7.73;4.53;;;12.40;99.90;;;;;;5035711;28;20189;-43
2023/05/06 05:00:09;;;;;;;8.60;4.40;;;12.40;99.90;;;;;;5031976;28;20198;-38
2023/05/06 05:02:35;;;;;;;5.40;4.03;;;12.40;99.90;;;;;;5035023;28;20195;-43
2023/05/06 05:05:01;;;;;;;12.67;4.80;;;12.40;99.90;;;;;;5052063;28;20184;-42
2023/05/06 05:07:27;;;;;;;5.60;4.47;;;12.50;99.90;;;;;;5032988;28;20187;-42
2023/05/06 05:09:53;;;;;;;4.73;4.20;;;12.50;99.90;;;;;;5049367;28;20223;-43
2023/05/06 05:12:19;;;;;;;3.93;3.63;;;12.50;99.90;;;;;;5051438;28;20192;-44
2023/05/06 05:14:47;;;;;;;5.97;3.90;;;12.60;99.90;;;;;;5047430;28;20215;-41
2023/05/06 05:17:14;;;;;;;10.20;3.73;;;12.60;99.90;;;;;;5047175;28;20184;-42
2023/05/06 05:19:41;;;;;;;5.97;3.57;;;12.60;99.90;;;;;;5046634;28;20204;-42
2023/05/06 05:22:08;;;;;;;6.90;3.70;;;12.60;99.90;;;;;;5036097;28;20177;-42
2023/05/06 05:24:34;;;;;;;3.67;3.37;;;12.60;99.90;;;;;;5047026;28;20204;-42
2023/05/06 05:27:01;;;;;;;8.10;3.73;;;12.60;99.90;;;;;;5045948;28;20195;-43
2023/05/06 05:29:26;;;;;;;4.33;3.90;;;12.60;99.90;;;;;;5045212;28;20307;-42
2023/05/06 05:31:53;;;;;;;4.07;3.53;;;12.50;99.90;;;;;;5029452;28;20280;-44
2023/05/06 05:34:19;;;;;;;4.43;3.83;;;12.60;99.90;;;;;;5032981;28;20256;-43
2023/05/06 05:36:46;;;;;;;3.97;3.67;;;12.60;99.90;;;;;;5055945;28;20176;-43
2023/05/06 05:39:13;;;;;;;4.30;3.47;;;12.70;99.90;;;;;;5049272;28;20543;-43
2023/05/06 05:41:43;;;;;;;3.80;3.10;;;12.70;99.90;;;;;;5052484;28;20267;-43
2023/05/06 05:44:10;;;;;;;3.57;3.03;;;12.70;99.90;;;;;;5038342;28;20649;-43
2023/05/06 05:46:37;;;;;;;3.30;3.10;;;12.80;99.90;;;;;;5052509;28;20238;-42
2023/05/06 05:49:05;;;;;;;3.50;3.20;;;12.80;99.90;;;;;;5047906;28;20287;-40
2023/05/06 05:51:32;;;;;;;4.40;3.47;;;12.80;99.90;;;;;;5051636;28;20285;-43
2023/05/06 05:54:01;;;;;;;4.10;3.60;;;12.90;99.90;;;;;;5060469;28;20276;-43
2023/05/06 05:56:28;;;;;;;4.43;4.10;;;12.90;99.90;;;;;;5054957;28;20727;-41
2023/05/06 05:58:54;;;;;;;3.97;3.67;;;13.00;99.90;;;;;;5068727;28;20177;-42
2023/05/06 06:01:19;;;;;;;3.97;3.67;;;13.10;99.90;;;;;;5034499;28;20197;-42
2023/05/06 06:03:46;;;;;;;5.13;4.63;;;13.20;99.90;;;;;;5035979;28;20193;-40
2023/05/06 06:06:12;;;;;;;4.63;4.23;;;13.10;99.90;;;;;;5050806;28;20187;-42
2023/05/06 06:08:38;;;;;;;4.60;4.20;;;13.10;99.90;;;;;;5034308;28;20183;-43
2023/05/06 06:11:05;;;;;;;4.87;4.47;;;13.20;99.90;;;;;;5034161;28;20209;-43
2023/05/06 06:13:36;;;;;;;9.53;5.00;;;13.20;99.90;;;;;;5060326;28;20205;-43
2023/05/06 06:16:03;;;;;;;5.50;4.93;;;13.20;99.90;;;;;;5032686;28;20177;-43
2023/05/06 06:18:28;;;;;;;4.27;3.87;;;13.20;99.90;;;;;;5050679;28;20177;-42
2023/05/06 06:20:55;;;;;;;4.80;4.27;;;13.20;99.90;;;;;;5054079;28;20220;-42
2023/05/06 06:23:21;;;;;;;5.53;4.60;;;13.30;99.90;;;;;;5052121;28;20282;-42
2023/05/06 06:25:47;;;;;;;5.23;4.80;;;13.30;99.90;;;;;;5073001;28;20188;-42
2023/05/06 06:28:13;;;;;;;6.77;4.80;;;13.40;99.90;;;;;;5042498;28;20178;-43
2023/05/06 06:30:39;;;;;;;4.87;4.47;;;13.50;99.90;;;;;;5052150;28;20230;-42
2023/05/06 06:33:05;;;;;;;8.30;4.90;;;13.50;99.90;;;;;;5066766;28;20212;-42
2023/05/06 06:35:31;;;;;;;6.07;4.97;;;13.60;99.90;;;;;;5066177;28;20268;-43
2023/05/06 06:37:57;;;;;;;5.63;5.13;;;13.60;99.90;;;;;;5058930;28;20257;-42
2023/05/06 06:40:23;;;;;;;5.40;4.60;;;13.70;99.90;;;;;;5065742;28;20228;-44
2023/05/06 06:42:49;;;;;;;5.47;4.60;;;13.80;99.90;;;;;;5073395;28;20214;-42
2023/05/06 06:45:46;;;;;;;4.70;4.30;;;13.90;99.90;;;;;;5049340;28;20182;-43
2023/05/06 06:48:12;;;;;;;4.47;3.90;;;14.00;99.90;;;;;;5038369;28;20208;-43
2023/05/06 06:50:37;;;;;;;5.70;4.30;;;14.00;99.90;;;;;;5071836;28;20193;-42
2023/05/06 06:53:03;;;;;;;4.13;3.83;;;14.00;99.90;;;;;;5065921;28;20197;-42
2023/05/06 06:55:29;;;;;;;4.87;4.20;;;14.10;99.90;;;;;;5030772;28;20178;-43
2023/05/06 06:57:55;;;;;;;4.10;3.80;;;14.20;99.90;;;;;;5053920;28;20169;-43
2023/05/06 07:00:23;;;;;;;4.17;3.77;;;14.20;99.90;;;;;;5062390;28;20192;-42
2023/05/06 07:02:48;;;;;;;4.33;3.63;;;14.20;99.90;;;;;;5071926;28;20188;-41
2023/05/06 07:05:14;;;;;;;4.20;3.20;;;14.30;99.90;;;;;;5034104;28;20189;-42
2023/05/06 07:07:40;;;;;;;5.23;3.60;;;14.50;99.90;;;;;;5063914;28;20193;-43
2023/05/06 07:10:07;;;;;;;5.87;3.97;;;14.60;99.90;;;;;;5047239;28;20211;-42
2023/05/06 07:12:32;;;;;;;3.90;3.60;;;14.70;99.90;;;;;;5053467;28;20201;-42
2023/05/06 07:14:58;;;;;;;3.07;2.87;;;14.90;99.90;;;;;;5033127;28;20197;-42
2023/05/06 07:17:24;;;;;;;3.73;3.43;;;15.00;99.90;;;;;;5054170;28;20212;-42
2023/05/06 07:19:50;;;;;;;3.43;3.13;;;15.00;99.90;;;;;;5050474;28;20307;-42
2023/05/06 07:22:15;;;;;;;4.17;3.63;;;15.10;99.90;;;;;;5053037;28;20639;-42
2023/05/06 07:24:41;;;;;;;4.60;3.23;;;15.20;99.90;;;;;;5071380;28;20310;-42
2023/05/06 07:27:07;;;;;;;3.70;3.40;;;15.20;99.90;;;;;;5051303;28;20186;-43
2023/05/06 07:29:35;;;;;;;5.00;3.03;;;15.30;99.90;;;;;;5053813;28;20209;-41
2023/05/06 07:32:02;;;;;;;3.97;3.57;;;15.30;99.90;;;;;;5053197;28;20227;-42
2023/05/06 07:34:27;;;;;;;3.53;3.27;;;15.50;99.90;;;;;;5071600;28;20189;-42
2023/05/06 07:36:53;;;;;;;3.93;3.00;;;15.70;99.90;;;;;;5072097;28;20177;-42
2023/05/06 07:39:19;;;;;;;4.47;4.07;;;15.80;99.90;;;;;;5053753;28;20220;-42
2023/05/06 07:41:45;;;;;;;3.47;3.17;;;15.80;99.90;;;;;;5044894;28;20275;-40
2023/05/06 07:44:11;;;;;;;4.03;3.70;;;15.80;99.90;;;;;;5035082;28;20239;-42
2023/05/06 07:46:37;;;;;;;4.23;3.80;;;15.70;99.90;;;;;;5053560;28;20186;-43
2023/05/06 07:49:03;;;;;;;4.67;4.27;;;15.70;99.90;;;;;;5071133;28;20238;-41
2023/05/06 07:51:28;;;;;;;5.50;3.73;;;15.80;99.90;;;;;;5052898;28;20258;-41
2023/05/06 07:53:54;;;;;;;4.00;3.67;;;15.70;99.90;;;;;;5052644;28;20208;-42
2023/05/06 07:56:20;;;;;;;4.30;3.90;;;15.60;99.90;;;;;;5053713;28;20178;-42
2023/05/06 07:58:47;;;;;;;4.50;4.03;;;15.60;99.90;;;;;;5071440;28;20257;-43
2023/05/06 08:01:14;;;;;;;3.97;3.67;;;15.60;99.90;;;;;;5053055;28;20197;-43
2023/05/06 08:03:39;;;;;;;4.00;3.60;;;15.80;99.90;;;;;;5054159;28;20212;-42
2023/05/06 08:06:06;;;;;;;3.60;3.30;;;16.00;99.90;;;;;;5052893;28;20267;-43
2023/05/06 08:08:31;;;;;;;4.43;3.95;;;16.20;99.90;;;;;;5053472;28;20185;-42
2023/05/06 08:10:58;;;;;;;4.43;3.53;;;16.40;99.90;;;;;;5060167;28;20208;-42
2023/05/06 08:13:24;;;;;;;3.60;3.20;;;16.50;99.90;;;;;;5043200;28;20699;-42
2023/05/06 08:15:51;;;;;;;3.72;3.22;;;16.70;99.90;;;;;;5064697;28;20197;-45
2023/05/06 08:18:16;;;;;;;3.22;3.03;;;17.00;99.90;;;;;;5049730;28;20184;-43
2023/05/06 08:20:42;;;;;;;3.50;3.20;;;17.10;99.90;;;;;;5074818;28;20213;-41
2023/05/06 08:23:08;;;;;;;3.20;2.90;;;17.30;99.90;;;;;;5068019;28;20192;-43
2023/05/06 08:25:35;;;;;;;3.20;2.90;;;17.40;99.90;;;;;;5050295;28;20272;-43
2023/05/06 08:28:02;;;;;;;4.20;3.17;;;17.40;99.90;;;;;;5044909;28;20319;-40
2023/05/06 08:30:30;;;;;;;3.58;3.10;;;17.60;99.90;;;;;;5045577;28;20198;-42
2023/05/06 08:32:57;;;;;;;3.80;2.25;;;17.80;99.90;;;;;;5026725;28;20223;-40
2023/05/06 08:35:23;;;;;;;2.97;2.75;;;18.00;99.90;;;;;;5060586;28;20181;-40
2023/05/06 08:37:49;;;;;;;3.03;2.70;;;18.20;99.90;;;;;;5059503;28;20204;-43
2023/05/06 08:40:21;;;;;;;2.55;2.35;;;18.40;99.90;;;;;;5046856;28;20281;-42
2023/05/06 08:42:51;;;;;;;3.15;2.42;;;18.60;99.90;;;;;;5060353;28;20189;-43
2023/05/06 08:45:18;;;;;;;2.75;2.55;;;18.70;99.90;;;;;;5047761;28;20239;-42
2023/05/06 08:47:51;;;;;;;3.55;2.33;;;18.80;99.90;;;;;;5061352;28;20231;-42
2023/05/06 08:50:17;;;;;;;2.20;1.67;;;18.90;99.90;;;;;;5023056;28;20291;-42
2023/05/06 08:52:44;;;;;;;2.60;2.05;;;18.90;99.90;;;;;;5049435;28;20291;-42
2023/05/06 08:55:10;;;;;;;1.88;1.70;;;19.20;99.90;;;;;;5041714;28;20258;-42
2023/05/06 08:57:37;;;;;;;2.22;1.40;;;19.40;99.90;;;;;;5068347;28;20185;-42
2023/05/06 09:00:03;;;;;;;3.22;1.67;;;19.70;99.90;;;;;;5068626;28;20193;-42
2023/05/06 09:02:29;;;;;;;2.13;1.65;;;19.80;99.90;;;;;;5064022;28;20189;-42
2023/05/06 09:04:55;;;;;;;3.17;1.50;;;19.80;99.90;;;;;;5054186;28;20192;-42
2023/05/06 09:07:23;;;;;;;2.60;1.40;;;20.00;99.90;;;;;;5075072;28;20182;-42
2023/05/06 09:09:49;;;;;;;2.35;1.58;;;20.10;99.90;;;;;;5048741;28;20209;-43
2023/05/06 09:12:15;;;;;;;2.05;1.50;;;20.20;99.90;;;;;;5046255;28;20210;-42
2023/05/06 09:14:42;;;;;;;2.05;1.45;;;20.40;99.90;;;;;;5090193;22;20288;-37
2023/05/06 09:17:25;;;;;;;2.05;1.60;;;20.50;99.90;;;;;;5023407;28;20174;-37
2023/05/06 09:19:53;;;;;;;3.75;1.50;;;20.60;99.90;;;;;;5024863;28;20266;-37
2023/05/06 09:22:24;;;;;;;1.20;1.10;;;20.50;99.90;;;;;;5010078;28;20179;-36
2023/05/06 09:24:56;;;;;;;1.17;1.08;;;20.60;99.90;;;;;;5020790;28;20207;-38
2023/05/06 09:27:27;;;;;;;2.15;1.00;;;20.60;99.90;;;;;;5024516;28;20177;-36
2023/05/06 09:30:05;;;;;;;2.00;1.25;;;20.80;99.90;;;;;;5038820;28;20183;-37
2023/05/06 09:32:31;;;;;;;1.80;1.30;;;20.90;99.90;;;;;;5039704;28;20268;-36
2023/05/06 09:34:58;;;;;;;2.67;1.20;;;20.60;99.90;;;;;;5023654;28;20267;-36
2023/05/06 09:37:27;;;;;;;1.45;1.20;;;20.60;99.90;;;;;;5026102;28;20173;-36
2023/05/06 09:39:57;;;;;;;3.65;1.30;;;20.50;99.90;;;;;;5054207;28;20184;-39
2023/05/06 09:42:25;;;;;;;2.25;1.40;;;20.50;99.90;;;;;;5018380;28;20178;-37
2023/05/06 09:44:56;;;;;;;1.83;1.30;;;20.40;99.90;;;;;;5048174;28;20240;-37
2023/05/06 09:47:24;;;;;;;1.58;1.48;;;20.40;99.90;;;;;;5017926;28;20183;-36
2023/05/06 09:49:54;;;;;;;2.55;1.42;;;20.60;99.90;;;;;;5045916;28;20238;-36
2023/05/06 09:52:22;;;;;;;1.95;1.20;;;20.80;99.90;;;;;;5021804;28;20263;-37
2023/05/06 09:54:50;;;;;;;2.13;1.13;;;21.00;99.90;;;;;;5052083;28;20202;-37
2023/05/06 09:57:17;;;;;;;2.35;1.30;;;21.20;99.90;;;;;;5019628;28;20174;-37
2023/05/06 09:59:43;;;;;;;3.22;1.35;;;21.40;99.90;;;;;;5040593;28;20174;-39
2023/05/06 10:02:13;;;;;;;1.38;1.10;;;21.60;99.90;;;;;;5020683;28;20175;-37
2023/05/06 10:04:41;;;;;;;2.35;1.10;;;21.70;99.90;;;;;;5035285;28;20201;-39
2023/05/06 10:07:11;;;;;;;1.95;1.08;;;21.70;99.90;;;;;;5021594;28;20167;-39
2023/05/06 10:09:40;;;;;;;1.70;1.00;;;21.50;99.90;;;;;;5021166;28;20174;-37
2023/05/06 10:12:07;;;;;;;2.35;1.40;;;21.30;99.90;;;;;;5024026;28;20178;-36
2023/05/06 10:14:37;;;;;;;1.90;1.00;;;21.30;99.90;;;;;;5042917;28;20213;-37
2023/05/06 10:17:10;;;;;;;1.63;1.33;;;21.10;99.90;;;;;;5025401;28;20194;-37
2023/05/06 10:19:40;;;;;;;1.20;1.10;;;21.20;99.90;;;;;;5025048;28;20182;-36
2023/05/06 10:22:10;;;;;;;1.25;1.13;;;21.10;99.90;;;;;;5014873;28;20177;-37
2023/05/06 10:24:46;;;;;;;1.88;1.27;;;21.10;99.90;;;;;;5047918;28;20206;-37
2023/05/06 10:27:15;;;;;;;1.60;1.20;;;21.10;99.90;;;;;;5050717;28;20246;-38
2023/05/06 10:29:42;;;;;;;2.28;1.10;;;21.10;99.90;;;;;;5025692;28;20182;-37
2023/05/06 10:32:10;;;;;;;1.25;1.10;;;21.20;99.90;;;;;;5014536;28;20261;-37
2023/05/06 10:34:41;;;;;;;1.20;1.10;;;21.30;99.90;;;;;;5051200;28;20201;-37
2023/05/06 10:37:10;;;;;;;1.83;1.33;;;21.40;99.90;;;;;;5036238;28;20187;-37
2023/05/06 10:39:36;;;;;;;1.15;1.05;;;21.60;99.90;;;;;;5014398;28;20183;-38
2023/05/06 10:42:04;;;;;;;1.38;0.98;;;21.70;99.90;;;;;;5016933;28;20193;-37
2023/05/06 10:44:55;;;;;;;2.00;0.90;;;21.80;99.90;;;;;;5012760;28;20201;-37
2023/05/06 10:47:21;;;;;;;1.35;0.90;;;21.80;99.90;;;;;;5051892;28;20234;-37
2023/05/06 10:50:20;;;;;;;1.23;1.00;;;21.70;99.90;;;;;;5033824;28;20182;-39
2023/05/06 10:52:47;;;;;;;1.75;1.08;;;22.00;99.90;;;;;;5047865;28;20280;-38
2023/05/06 10:55:34;;;;;;;0.95;0.90;;;22.30;99.90;;;;;;5011513;28;20251;-37
2023/05/06 10:58:10;;;;;;;0.80;0.80;;;22.60;99.90;;;;;;5029120;28;20273;-40
2023/05/06 11:00:38;;;;;;;1.23;1.10;;;22.40;99.90;;;;;;5042322;28;20185;-38
2023/05/06 11:03:10;;;;;;;2.05;1.00;;;22.40;99.90;;;;;;5026638;28;20182;-40
2023/05/06 11:05:54;;;;;;;1.05;0.93;;;22.60;99.90;;;;;;5033338;28;20185;-37
2023/05/06 11:08:28;;;;;;;1.05;0.93;;;22.90;99.90;;;;;;5042751;28;20181;-37
2023/05/06 11:10:57;;;;;;;1.70;1.27;;;23.00;99.90;;;;;;5025458;28;20189;-38
2023/05/06 11:13:27;;;;;;;1.02;1.00;;;23.10;99.90;;;;;;5042159;28;20202;-36
2023/05/06 11:15:57;;;;;;;1.50;0.93;;;23.20;99.90;;;;;;5028851;28;20182;-37
2023/05/06 11:18:30;;;;;;;1.30;0.82;;;23.40;99.90;;;;;;5023509;28;20170;-37
2023/05/06 11:20:59;;;;;;;1.00;0.90;;;23.50;99.90;;;;;;5041447;28;20174;-39
2023/05/06 11:23:45;;;;;;;1.15;1.05;;;23.30;99.90;;;;;;5004205;28;20201;-37
2023/05/06 11:26:13;;;;;;;1.00;1.00;;;23.20;99.90;;;;;;5010180;28;20210;-36
2023/05/06 11:28:47;;;;;;;1.23;0.90;;;23.50;99.90;;;;;;5021087;28;20182;-37
2023/05/06 11:31:15;;;;;;;2.13;1.05;;;23.90;99.90;;;;;;5046523;28;20264;-37
2023/05/06 11:33:49;;;;;;;1.10;1.00;;;24.00;99.90;;;;;;5026796;28;20221;-41
2023/05/06 11:36:16;;;;;;;2.10;1.00;;;24.00;99.90;;;;;;5023744;28;20182;-38
2023/05/06 11:38:43;;;;;;;1.77;1.02;;;24.10;99.90;;;;;;5016913;28;20178;-38
2023/05/06 11:41:11;;;;;;;1.30;1.20;;;23.80;99.90;;;;;;5008903;28;20231;-37
2023/05/06 11:43:44;;;;;;;2.85;1.75;;;23.90;99.90;;;;;;5046442;28;20283;-36
2023/05/06 11:46:13;;;;;;;2.03;1.80;;;23.60;99.90;;;;;;5020463;28;20214;-37
2023/05/06 11:48:43;;;;;;;1.23;1.00;;;23.60;99.90;;;;;;5038044;28;20298;-37
2023/05/06 11:51:11;;;;;;;3.85;1.80;;;23.90;99.90;;;;;;5027379;28;20178;-37
2023/05/06 11:53:37;;;;;;;1.98;1.20;;;24.00;99.90;;;;;;5027244;28;20308;-36
2023/05/06 11:56:05;;;;;;;1.40;1.30;;;24.10;99.90;;;;;;5039436;28;20187;-37
2023/05/06 11:58:31;;;;;;;1.42;1.00;;;24.20;99.90;;;;;;5029309;28;20182;-36
2023/05/06 12:00:59;;;;;;;2.45;1.00;;;24.20;99.90;;;;;;5038339;28;20193;-37
2023/05/06 12:03:27;;;;;;;1.23;0.98;;;24.40;99.90;;;;;;5021471;28;20205;-37
2023/05/06 12:05:54;;;;;;;1.40;1.30;;;24.30;99.90;;;;;;5041877;28;20228;-37
2023/05/06 12:09:04;;;;;;;1.58;0.98;;;24.30;99.90;;;;;;5013173;28;20181;-37
2023/05/06 12:11:32;;;;;;;0.90;0.90;;;24.40;99.90;;;;;;5020969;28;20224;-36
2023/05/06 12:13:58;;;;;;;1.00;0.90;;;24.60;99.90;;;;;;5041723;28;20229;-40
2023/05/06 12:16:26;;;;;;;3.13;1.05;;;24.80;99.90;;;;;;5023175;28;20174;-40
2023/05/06 12:18:53;;;;;;;1.25;1.15;;;24.90;99.90;;;;;;5045073;28;20819;-39
2023/05/06 12:21:25;;;;;;;1.00;0.90;;;25.00;99.90;;;;;;5045275;28;20239;-36
2023/05/06 12:23:58;;;;;;;1.42;1.17;;;25.10;99.90;;;;;;4985500;28;20230;-37
2023/05/06 12:26:29;;;;;;;1.10;1.00;;;25.10;99.90;;;;;;5027701;28;20174;-37
2023/05/06 12:29:16;;;;;;;2.08;1.70;;;24.90;99.90;;;;;;5025108;28;20178;-36
2023/05/06 12:31:43;;;;;;;2.20;1.52;;;24.80;99.90;;;;;;5049649;28;20186;-37
2023/05/06 12:34:09;;;;;;;1.65;1.20;;;24.80;99.90;;;;;;5033641;28;20222;-37
2023/05/06 12:36:44;;;;;;;1.45;1.30;;;24.90;99.90;;;;;;5026562;28;20932;-39
2023/05/06 12:39:13;;;;;;;1.83;1.30;;;25.00;99.90;;;;;;5042953;28;20182;-37
2023/05/06 12:41:43;;;;;;;1.48;1.20;;;25.20;99.90;;;;;;5023762;28;20237;-41
2023/05/06 12:44:31;;;;;;;1.30;1.20;;;25.10;99.90;;;;;;5019775;28;20235;-37
2023/05/06 12:47:29;;;;;;;1.90;1.15;;;24.70;99.90;;;;;;5043645;28;20208;-37
2023/05/06 12:50:44;;;;;;;1.55;1.05;;;24.70;99.90;;;;;;5050652;28;20182;-37
2023/05/06 12:53:12;;;;;;;1.70;1.00;;;24.90;99.90;;;;;;5049607;28;20245;-38